Etusivu
METAR-TAF:

METAR-TAF

Lentoasemat :

Dübendorf, Sveitsi

Leveyspiiri: 47-23-55N, Pituuspiiri: 8-38-53E, korkeus merenpinnasta: 448 m

Tämänhetkinen sää

Tämä raportti tehtiin 28 minuuttia sitten, kello 13.50 UTC
Tuuli 7 kn koillisesta, vaihdellen pohjoisen ja idän välillä
Lämpötila 3°C
Kosteus 70%
Ilmanpaine 1022 hPa
Näkyvyys 10 km tai enemmän
Pilvistä 2600 ft:n korkeudessa

METAR: LSMD 301350Z 04007KT 350V080 9999 OVC026 03/M02 Q1022 RMK BLU

Aika: 16:18 (14:18 UTC)


TAF: puuttuu

Säähavainnot ja -ennusteet yli 4000 lentoasemalta (METAR- ja TAF-raportit).

Käytössä olevat sääasemat on merkitty karttaan keltaisilla ja punaisilla pisteillä.

Aseta hiiri pisteen päälle nähdäksesi sääaseman nimen.

Klikkaa sitten nähdäksesi säähavainnot ja -ennusteet.

Kartan vaihtaminen: klikkaa mustalla rastilla varustettuja vihreitä pisteitä, niin voit zoomata sisään; viivalla varustettua vihreää pistettä, niin voit zoomata ulos tai vihreitä nuolia, niin pääset viereisille kartoille.


METAR-TAF: